Time;durP1;ratioP1;P1;durP2;ratioP2;P2;SDS_P1;SDS_P2;PMS_P1;PMS_P2;Temp;Humidity;BMP_temperature;BMP_pressure;BME280_temperature;BME280_humidity;BME280_pressure;Samples;Min_cycle;Max_cycle;Signal;HPM_P1;HPM_P2
2021/05/24 00:02:15;;;;;;;3.53;3.00;;;10.10;97.30;;;;;;5603021;23;20530;-92
2021/05/24 00:04:50;;;;;;;5.00;2.90;;;10.10;97.30;;;;;;4959693;28;20518;-91
2021/05/24 00:07:15;;;;;;;7.23;2.70;;;10.10;97.30;;;;;;4955985;29;20406;-92
2021/05/24 00:09:41;;;;;;;5.17;2.87;;;10.10;97.30;;;;;;4956540;28;20485;-93
2021/05/24 00:12:07;;;;;;;3.47;2.60;;;10.10;97.30;;;;;;4956775;28;20300;-91
2021/05/24 00:14:37;;;;;;;5.10;2.80;;;10.00;97.30;;;;;;4955604;28;20968;-91
2021/05/24 00:17:03;;;;;;;3.83;2.70;;;10.00;97.30;;;;;;4956945;28;20423;-92
2021/05/24 00:19:28;;;;;;;4.20;2.87;;;10.00;97.30;;;;;;4955707;28;20446;-91
2021/05/24 00:21:57;;;;;;;5.87;3.40;;;10.00;97.30;;;;;;4954870;28;20186;-92
2021/05/24 00:24:42;;;;;;;7.70;3.17;;;9.90;97.30;;;;;;4953934;28;20571;-92
2021/05/24 00:27:08;;;;;;;5.30;3.47;;;9.90;97.30;;;;;;4954650;29;20423;-92
2021/05/24 00:29:34;;;;;;;3.63;2.93;;;9.90;97.30;;;;;;4956657;28;20545;-92
2021/05/24 00:32:17;;;;;;;11.93;3.60;;;9.90;97.30;;;;;;4958270;28;21021;-91
2021/05/24 00:34:46;;;;;;;8.70;3.63;;;9.80;97.30;;;;;;4957716;28;20203;-92
2021/05/24 00:37:32;;;;;;;5.70;3.70;;;9.80;97.30;;;;;;4958704;28;20518;-92
2021/05/24 00:40:07;;;;;;;5.53;3.40;;;9.80;97.30;;;;;;4958713;29;20497;-92
2021/05/24 00:42:39;;;;;;;4.50;3.40;;;9.80;97.30;;;;;;4958680;29;20411;-92
2021/05/24 00:45:09;;;;;;;5.33;3.00;;;9.70;97.30;;;;;;4958036;28;20446;-92
2021/05/24 00:47:45;;;;;;;4.87;2.93;;;9.70;97.30;;;;;;4959135;28;20431;-92
2021/05/24 00:50:20;;;;;;;3.53;2.80;;;9.70;97.30;;;;;;4959005;29;20426;-92
2021/05/24 00:52:49;;;;;;;5.47;3.73;;;9.60;97.30;;;;;;4959741;29;20529;-92
2021/05/24 00:55:15;;;;;;;4.97;3.13;;;9.60;97.30;;;;;;4959416;28;20469;-92
2021/05/24 00:57:44;;;;;;;6.90;2.90;;;9.60;97.30;;;;;;4959124;28;20911;-92
2021/05/24 01:00:35;;;;;;;4.10;3.30;;;9.50;97.30;;;;;;4958064;28;20422;-91
2021/05/24 01:03:08;;;;;;;4.47;2.73;;;9.40;97.30;;;;;;4909833;29;20483;-91
2021/05/24 01:05:38;;;;;;;2.93;2.40;;;9.40;97.30;;;;;;4957185;29;20434;-92
2021/05/24 01:08:08;;;;;;;4.60;2.50;;;9.40;97.30;;;;;;4956593;29;20477;-92
2021/05/24 01:10:37;;;;;;;4.03;3.50;;;9.30;97.30;;;;;;4957866;28;20431;-92
2021/05/24 01:13:11;;;;;;;5.63;3.10;;;9.30;97.30;;;;;;4957527;28;20426;-92
2021/05/24 01:15:41;;;;;;;5.20;3.40;;;9.20;97.30;;;;;;4956614;29;20425;-91
2021/05/24 01:18:07;;;;;;;3.00;2.60;;;9.20;97.30;;;;;;4958150;28;20781;-92
2021/05/24 01:20:33;;;;;;;3.93;2.77;;;9.20;97.30;;;;;;4958433;28;20453;-92
2021/05/24 01:25:26;;;;;;;6.30;2.90;;;9.10;97.30;;;;;;4959297;28;20178;-92
2021/05/24 01:28:03;;;;;;;4.27;2.80;;;9.10;97.30;;;;;;4958578;28;20418;-92
2021/05/24 01:30:30;;;;;;;3.43;3.17;;;9.10;97.30;;;;;;4958584;29;20434;-92
2021/05/24 01:32:58;;;;;;;3.60;2.97;;;9.10;97.30;;;;;;4959575;28;20425;-91
2021/05/24 01:35:24;;;;;;;3.40;2.90;;;9.10;97.30;;;;;;4959365;28;20419;-91
2021/05/24 01:38:00;;;;;;;8.20;3.20;;;9.10;97.30;;;;;;4959201;28;20415;-92
2021/05/24 01:40:26;;;;;;;6.70;3.70;;;9.10;97.30;;;;;;4957735;28;20403;-91
2021/05/24 01:42:54;;;;;;;13.63;4.20;;;9.00;97.30;;;;;;4957427;28;20430;-92
2021/05/24 01:45:20;;;;;;;10.70;5.17;;;9.00;97.30;;;;;;4956546;28;20494;-91
2021/05/24 01:47:45;;;;;;;6.87;4.80;;;9.00;97.30;;;;;;4956692;28;20534;-91
2021/05/24 01:50:15;;;;;;;7.97;5.10;;;9.00;97.30;;;;;;4957179;28;20198;-91
2021/05/24 01:52:44;;;;;;;8.90;5.73;;;8.90;97.30;;;;;;4956429;28;20179;-91
2021/05/24 01:55:11;;;;;;;8.07;4.47;;;8.90;97.30;;;;;;4956227;28;20435;-92
2021/05/24 01:57:54;;;;;;;;;;;;;;;;;;;;;
2021/05/24 02:00:27;;;;;;;8.57;5.33;;;8.80;97.30;;;;;;4958377;29;20430;-92
2021/05/24 02:02:56;;;;;;;5.70;3.83;;;8.80;97.30;;;;;;4957368;28;20517;-92
2021/05/24 02:05:25;;;;;;;6.73;3.53;;;8.80;97.30;;;;;;4957188;28;20423;-92
2021/05/24 02:08:12;;;;;;;7.93;4.00;;;8.80;97.30;;;;;;4957501;28;20419;-92
2021/05/24 02:10:55;;;;;;;5.83;4.07;;;8.70;97.30;;;;;;4959615;29;20439;-92
2021/05/24 02:13:33;;;;;;;;;;;;;;;;;;;;;
2021/05/24 02:16:38;;;;;;;6.60;3.63;;;8.70;97.30;;;;;;4960540;29;20513;-92
2021/05/24 02:19:17;;;;;;;5.73;3.03;;;8.60;97.30;;;;;;4959286;28;20433;-92
2021/05/24 02:22:16;;;;;;;9.73;3.90;;;8.60;97.30;;;;;;4958811;29;20797;-92
2021/05/24 02:25:11;;;;;;;7.30;3.87;;;8.60;97.30;;;;;;4957042;29;20442;-92
2021/05/24 02:28:38;;;;;;;5.60;3.43;;;8.60;97.30;;;;;;4931438;29;20432;-92
2021/05/24 02:31:41;;;;;;;5.90;3.40;;;8.50;97.30;;;;;;4897057;29;20437;-92
2021/05/24 02:35:00;;;;;;;;;;;;;;;;;;;;;
2021/05/24 02:37:50;;;;;;;3.70;3.37;;;8.50;97.30;;;;;;4936210;29;20404;-92
2021/05/24 03:08:39;;;;;;;5.43;3.40;;;8.10;97.30;;;;;;4943611;28;20587;-92
2021/05/24 03:25:19;;;;;;;5.30;3.10;;;8.00;97.30;;;;;;4936459;29;20570;-92
2021/05/24 04:00:40;;;;;;;6.00;3.20;;;8.10;97.30;;;;;;4914904;29;20481;-89
2021/05/24 04:03:06;;;;;;;5.00;3.60;;;8.10;97.30;;;;;;4930694;29;20417;-89
2021/05/24 04:05:32;;;;;;;4.43;3.47;;;8.20;97.30;;;;;;4916740;29;20656;-90
2021/05/24 04:07:59;;;;;;;14.67;3.30;;;8.20;97.30;;;;;;4931498;29;20613;-90
2021/05/24 04:10:29;;;;;;;10.00;3.50;;;8.20;97.30;;;;;;4899982;29;20429;-89
2021/05/24 04:12:55;;;;;;;4.87;3.07;;;8.20;97.30;;;;;;4900179;29;20409;-90
2021/05/24 04:15:21;;;;;;;7.80;3.37;;;8.10;97.30;;;;;;4900647;29;20861;-90
2021/05/24 04:17:48;;;;;;;4.50;3.20;;;8.10;97.30;;;;;;4917077;29;20620;-89
2021/05/24 04:20:15;;;;;;;6.93;3.43;;;8.10;97.30;;;;;;4916902;29;20425;-90
2021/05/24 04:22:41;;;;;;;5.40;3.10;;;8.10;97.30;;;;;;4901713;29;20484;-89
2021/05/24 04:25:08;;;;;;;7.67;4.00;;;8.10;97.30;;;;;;4901086;29;20428;-89
2021/05/24 04:27:34;;;;;;;7.17;3.70;;;8.20;97.30;;;;;;4914973;29;20452;-89
2021/05/24 04:30:00;;;;;;;4.47;3.23;;;8.20;97.30;;;;;;4894517;29;20512;-90
2021/05/24 04:32:26;;;;;;;4.70;3.47;;;8.20;97.30;;;;;;4899256;29;20563;-90
2021/05/24 04:34:51;;;;;;;6.07;3.10;;;8.30;97.30;;;;;;4915850;29;20488;-90
2021/05/24 04:37:17;;;;;;;3.40;3.13;;;8.30;97.30;;;;;;4899270;29;20204;-89
2021/05/24 04:39:44;;;;;;;3.47;3.00;;;8.40;97.30;;;;;;4898980;29;20605;-89
2021/05/24 04:42:10;;;;;;;9.47;2.83;;;8.40;97.30;;;;;;4899016;29;20185;-90
2021/05/24 04:44:35;;;;;;;5.63;2.90;;;8.50;97.30;;;;;;4899225;29;20654;-89
2021/05/24 04:47:02;;;;;;;3.30;2.53;;;8.60;97.30;;;;;;4901405;29;20511;-90
2021/05/24 04:49:27;;;;;;;4.40;3.07;;;8.60;97.30;;;;;;4900097;29;20220;-90
2021/05/24 04:51:53;;;;;;;5.83;3.30;;;8.70;97.30;;;;;;4900165;29;20413;-90
2021/05/24 04:54:18;;;;;;;4.10;2.70;;;8.80;97.30;;;;;;4899954;29;20212;-89
2021/05/24 04:56:44;;;;;;;3.27;2.80;;;8.90;97.30;;;;;;4900639;29;20200;-90
2021/05/24 04:59:09;;;;;;;9.43;2.60;;;9.00;97.30;;;;;;4900843;29;20252;-90
2021/05/24 05:01:35;;;;;;;4.03;2.10;;;9.10;97.30;;;;;;4900127;29;20195;-90
2021/05/24 05:04:00;;;;;;;3.80;2.70;;;9.20;97.30;;;;;;4901030;29;20188;-91
2021/05/24 05:06:26;;;;;;;2.40;2.20;;;9.30;97.30;;;;;;4901379;29;20204;-91
2021/05/24 05:08:52;;;;;;;2.40;2.30;;;9.30;97.30;;;;;;4900373;29;20208;-90
2021/05/24 05:11:17;;;;;;;3.27;2.70;;;9.40;97.30;;;;;;4899557;29;20221;-90
2021/05/24 05:13:57;;;;;;;2.60;2.10;;;9.50;97.30;;;;;;4899485;29;20187;-90
2021/05/24 05:26:44;;;;;;;4.17;2.50;;;10.00;97.30;;;;;;4862022;29;20491;-90
2021/05/24 05:29:10;;;;;;;4.43;2.60;;;10.10;97.30;;;;;;4849633;29;20836;-91
2021/05/24 05:31:35;;;;;;;3.50;2.50;;;10.20;97.30;;;;;;4919764;29;20409;-90
2021/05/24 05:34:01;;;;;;;3.03;2.10;;;10.30;97.30;;;;;;4903088;29;20181;-90
2021/05/24 05:36:28;;;;;;;3.20;2.60;;;10.30;97.30;;;;;;4903198;29;20196;-90
2021/05/24 05:38:53;;;;;;;7.77;2.53;;;10.40;97.30;;;;;;4903896;29;20184;-91
2021/05/24 05:41:19;;;;;;;3.40;2.47;;;10.50;97.30;;;;;;4903785;29;20915;-90
2021/05/24 05:43:45;;;;;;;3.87;2.60;;;10.60;97.30;;;;;;4903717;29;20240;-90
2021/05/24 05:46:10;;;;;;;6.63;2.43;;;10.70;97.30;;;;;;4903554;29;20287;-90
2021/05/24 05:48:44;;;;;;;3.10;1.90;;;10.90;97.30;;;;;;4916402;29;20699;-90
2021/05/24 05:51:10;;;;;;;3.40;2.40;;;11.00;97.30;;;;;;4920044;29;20180;-90
2021/05/24 05:53:36;;;;;;;3.23;1.93;;;11.20;97.30;;;;;;4924364;29;20488;-91
2021/05/24 05:56:02;;;;;;;5.83;2.37;;;11.30;97.30;;;;;;4906686;29;20429;-90
2021/05/24 05:58:27;;;;;;;2.70;1.73;;;11.50;97.30;;;;;;4903003;29;20787;-89
2021/05/24 06:00:53;;;;;;;1.90;1.80;;;11.70;97.30;;;;;;4901716;29;20181;-90
2021/05/24 06:03:18;;;;;;;2.70;1.77;;;11.80;97.30;;;;;;4901798;29;20184;-90
2021/05/24 06:05:44;;;;;;;2.83;2.30;;;12.00;97.30;;;;;;4901913;29;20204;-90
2021/05/24 06:08:09;;;;;;;3.40;2.20;;;12.10;97.30;;;;;;4900605;29;20698;-90
2021/05/24 06:10:35;;;;;;;2.93;2.10;;;12.20;97.30;;;;;;4900915;29;20215;-90
2021/05/24 06:13:02;;;;;;;7.20;1.90;;;12.30;97.30;;;;;;4901514;29;20191;-89
2021/05/24 06:15:28;;;;;;;2.60;1.97;;;12.50;97.30;;;;;;4903178;29;20492;-89
2021/05/24 06:17:53;;;;;;;2.20;1.60;;;12.60;97.30;;;;;;4904651;29;20455;-90
2021/05/24 06:20:19;;;;;;;2.33;1.83;;;12.70;97.30;;;;;;4902909;29;20652;-90
2021/05/24 06:22:45;;;;;;;3.67;2.20;;;12.90;97.30;;;;;;4902548;29;20191;-91
2021/05/24 06:25:11;;;;;;;4.90;2.03;;;13.00;97.30;;;;;;4902583;29;20986;-89
2021/05/24 06:27:38;;;;;;;2.60;2.03;;;13.10;97.30;;;;;;4901826;29;20200;-89
2021/05/24 06:30:05;;;;;;;2.90;1.80;;;13.20;97.30;;;;;;4901186;29;20469;-88
2021/05/24 06:32:31;;;;;;;3.00;1.73;;;13.40;97.30;;;;;;4899801;29;20456;-89
2021/05/24 06:34:56;;;;;;;3.03;1.90;;;13.50;97.30;;;;;;4917938;29;20413;-89
2021/05/24 06:37:22;;;;;;;3.10;2.00;;;13.50;97.00;;;;;;4900904;29;20199;-88
2021/05/24 06:39:48;;;;;;;2.17;1.70;;;13.60;97.30;;;;;;4900990;29;20204;-89
2021/05/24 06:42:13;;;;;;;4.60;1.63;;;13.70;97.30;;;;;;4900828;29;20180;-90
2021/05/24 06:44:39;;;;;;;2.80;1.80;;;13.70;97.30;;;;;;4901178;29;20209;-90
2021/05/24 06:47:05;;;;;;;1.77;1.77;;;13.70;96.80;;;;;;4902444;29;20224;-91
2021/05/24 06:49:31;;;;;;;2.17;1.80;;;13.70;96.20;;;;;;4901654;29;20208;-89
2021/05/24 06:51:57;;;;;;;2.00;1.90;;;13.80;96.90;;;;;;4901337;29;20437;-90
2021/05/24 06:54:22;;;;;;;2.53;1.80;;;14.00;97.20;;;;;;4901806;29;20443;-89
2021/05/24 06:56:48;;;;;;;2.00;1.43;;;14.10;97.30;;;;;;4904214;29;20204;-90
2021/05/24 06:59:15;;;;;;;2.43;1.60;;;14.30;96.50;;;;;;4899842;29;20730;-89
2021/05/24 07:01:41;;;;;;;2.07;1.60;;;14.40;95.80;;;;;;4932104;29;20183;-90
2021/05/24 07:04:07;;;;;;;2.60;1.83;;;14.60;94.90;;;;;;4922890;29;20465;-89
2021/05/24 07:06:32;;;;;;;2.57;1.50;;;14.70;93.70;;;;;;4897397;29;20234;-89
2021/05/24 07:08:58;;;;;;;2.53;1.60;;;14.80;94.10;;;;;;4898362;29;20248;-87
2021/05/24 07:11:24;;;;;;;2.93;1.40;;;15.00;93.60;;;;;;4901902;29;20178;-87
2021/05/24 07:13:50;;;;;;;2.43;1.60;;;15.00;92.90;;;;;;4895916;29;20189;-87
2021/05/24 07:16:16;;;;;;;1.60;1.50;;;15.10;92.70;;;;;;4897168;29;20464;-86
2021/05/24 07:18:41;;;;;;;4.03;1.80;;;15.10;93.20;;;;;;4897648;29;20504;-88
2021/05/24 07:21:07;;;;;;;5.00;1.73;;;15.20;93.10;;;;;;4896959;29;20189;-87
2021/05/24 07:23:32;;;;;;;3.60;1.70;;;15.30;93.00;;;;;;4931358;29;20189;-91
2021/05/24 07:25:58;;;;;;;2.77;1.93;;;15.40;94.20;;;;;;4928325;29;20652;-92
2021/05/24 07:28:24;;;;;;;3.17;1.70;;;15.50;92.60;;;;;;4926881;29;20284;-86
2021/05/24 07:30:50;;;;;;;2.30;1.70;;;15.70;94.80;;;;;;4926141;29;20473;-86
2021/05/24 07:33:15;;;;;;;2.60;1.70;;;15.90;93.10;;;;;;4926910;29;20321;-85
2021/05/24 07:35:41;;;;;;;2.50;1.70;;;16.00;91.00;;;;;;4896162;29;20529;-85
2021/05/24 07:38:08;;;;;;;2.27;1.90;;;16.00;90.30;;;;;;4896791;29;20197;-85
2021/05/24 07:40:34;;;;;;;4.70;1.60;;;16.00;90.00;;;;;;4927845;29;20298;-85
2021/05/24 07:42:59;;;;;;;1.73;1.60;;;16.10;90.70;;;;;;4928313;29;20429;-85
2021/05/24 07:45:24;;;;;;;1.90;1.47;;;16.20;91.20;;;;;;4897543;29;20181;-85
2021/05/24 07:47:50;;;;;;;2.70;1.47;;;16.30;89.80;;;;;;4931183;29;20269;-88
2021/05/24 07:50:15;;;;;;;1.67;1.37;;;16.30;90.70;;;;;;4899626;29;20212;-86
2021/05/24 07:52:41;;;;;;;3.37;1.77;;;16.30;90.50;;;;;;4930389;29;20181;-85
2021/05/24 07:55:07;;;;;;;1.50;1.40;;;16.40;91.80;;;;;;4927080;29;20636;-86
2021/05/24 07:57:35;;;;;;;3.87;1.70;;;16.50;91.50;;;;;;4924788;29;20284;-85
2021/05/24 08:00:01;;;;;;;3.50;1.70;;;16.60;90.30;;;;;;4907148;29;20472;-84
2021/05/24 08:02:26;;;;;;;1.73;1.47;;;16.70;91.40;;;;;;4912872;29;20943;-87
2021/05/24 08:04:52;;;;;;;1.83;1.70;;;16.80;90.40;;;;;;4897605;29;20218;-87
2021/05/24 08:07:18;;;;;;;2.63;1.83;;;16.80;90.40;;;;;;4899299;29;20268;-88
2021/05/24 08:09:44;;;;;;;1.70;1.53;;;16.80;90.10;;;;;;4898984;29;20457;-85
2021/05/24 08:12:12;;;;;;;7.00;1.40;;;17.00;90.70;;;;;;4898097;29;20974;-87
2021/05/24 08:14:37;;;;;;;2.20;1.70;;;17.00;88.20;;;;;;4889849;29;20208;-86
2021/05/24 08:17:03;;;;;;;1.87;1.63;;;17.10;88.90;;;;;;4897679;29;20977;-86
2021/05/24 08:19:28;;;;;;;2.60;1.50;;;17.20;88.30;;;;;;4897998;29;20197;-87
2021/05/24 08:21:54;;;;;;;1.90;1.60;;;17.20;87.80;;;;;;4896851;29;20184;-88
2021/05/24 08:24:19;;;;;;;3.40;1.50;;;17.30;89.60;;;;;;4896991;29;20240;-86
2021/05/24 08:26:46;;;;;;;2.90;1.97;;;17.30;88.80;;;;;;4916397;29;20582;-85
2021/05/24 08:29:12;;;;;;;4.30;1.60;;;17.20;90.00;;;;;;4900256;29;20224;-84
2021/05/24 08:31:45;;;;;;;1.70;1.63;;;17.20;89.10;;;;;;4900825;29;20860;-85
2021/05/24 08:34:10;;;;;;;2.60;1.60;;;17.30;89.10;;;;;;4901676;29;20206;-85
2021/05/24 08:36:37;;;;;;;1.90;1.70;;;17.40;89.10;;;;;;4901792;29;20955;-88
2021/05/24 08:39:04;;;;;;;3.93;1.73;;;17.40;87.80;;;;;;4900153;29;20192;-85
2021/05/24 08:41:32;;;;;;;3.10;1.30;;;17.40;89.00;;;;;;4899519;29;20436;-87
2021/05/24 08:43:57;;;;;;;1.80;1.60;;;17.50;88.60;;;;;;4900106;29;20436;-87
2021/05/24 08:46:24;;;;;;;2.33;1.63;;;17.70;88.90;;;;;;4899933;29;20475;-87
2021/05/24 08:48:50;;;;;;;3.80;1.70;;;17.80;88.70;;;;;;4917199;29;20200;-86
2021/05/24 08:51:16;;;;;;;3.03;1.57;;;17.90;87.20;;;;;;4904767;29;20899;-87
2021/05/24 08:53:41;;;;;;;2.97;1.60;;;17.90;86.10;;;;;;4904301;29;20412;-88
2021/05/24 08:56:08;;;;;;;2.47;1.50;;;18.00;86.20;;;;;;4921123;29;20180;-88
2021/05/24 08:58:34;;;;;;;2.80;1.30;;;18.00;84.80;;;;;;4904138;29;20241;-88
2021/05/24 09:01:00;;;;;;;4.13;1.47;;;17.90;84.90;;;;;;4903545;29;20428;-89
2021/05/24 09:03:30;;;;;;;3.03;1.57;;;17.90;85.60;;;;;;4919274;29;20667;-91
2021/05/24 09:05:59;;;;;;;2.37;1.37;;;17.90;85.60;;;;;;4902758;29;20515;-90
2021/05/24 09:08:58;;;;;;;1.50;1.30;;;18.00;86.50;;;;;;4902385;29;20476;-87
2021/05/24 09:11:31;;;;;;;1.83;1.50;;;18.00;85.40;;;;;;4896443;29;20427;-88
2021/05/24 09:13:56;;;;;;;2.10;1.30;;;18.00;83.70;;;;;;4903599;29;20420;-89
2021/05/24 09:16:31;;;;;;;2.63;1.50;;;18.00;85.40;;;;;;4903291;29;20843;-90
2021/05/24 09:19:12;;;;;;;2.50;1.47;;;18.20;85.70;;;;;;4919971;29;20183;-87
2021/05/24 09:21:38;;;;;;;9.90;2.50;;;18.40;85.70;;;;;;4903704;29;20841;-87
2021/05/24 09:24:24;;;;;;;2.70;1.60;;;18.50;84.60;;;;;;4902125;29;20457;-89
2021/05/24 09:26:50;;;;;;;1.97;1.37;;;18.70;82.90;;;;;;4901448;29;20196;-89
2021/05/24 09:29:23;;;;;;;2.67;1.40;;;18.80;83.80;;;;;;4901485;29;20468;-87
2021/05/24 09:32:10;;;;;;;2.40;1.50;;;18.80;81.60;;;;;;4902062;29;20495;-89
2021/05/24 09:34:37;;;;;;;3.03;1.60;;;19.00;82.20;;;;;;4905305;29;20417;-90
2021/05/24 09:37:03;;;;;;;1.63;1.50;;;19.10;82.50;;;;;;4920214;29;20443;-88
2021/05/24 09:39:31;;;;;;;1.97;1.30;;;19.20;80.20;;;;;;4901868;29;20544;-89
2021/05/24 09:42:00;;;;;;;2.33;1.40;;;19.30;80.10;;;;;;4918185;29;20188;-88
2021/05/24 09:44:26;;;;;;;2.00;1.50;;;19.30;77.90;;;;;;4902526;29;20975;-88
2021/05/24 09:46:53;;;;;;;4.90;1.60;;;19.40;78.90;;;;;;4902373;29;20827;-88
2021/05/24 09:49:23;;;;;;;1.97;1.50;;;19.40;77.50;;;;;;4902262;29;20849;-87
2021/05/24 09:51:50;;;;;;;4.83;1.47;;;19.60;80.10;;;;;;4903345;29;20484;-88
2021/05/24 09:54:16;;;;;;;2.20;1.40;;;19.60;78.70;;;;;;4903670;29;20429;-86
2021/05/24 09:59:15;;;;;;;2.33;1.30;;;19.70;78.90;;;;;;4914537;29;20216;-75
2021/05/24 10:01:44;;;;;;;1.80;1.47;;;19.80;79.70;;;;;;4913485;29;20445;-78
2021/05/24 10:04:13;;;;;;;3.10;1.67;;;19.90;79.70;;;;;;4915263;29;20417;-76
2021/05/24 10:06:40;;;;;;;2.00;1.57;;;20.00;77.70;;;;;;4915320;29;20420;-76
2021/05/24 10:09:08;;;;;;;3.23;1.60;;;20.10;77.70;;;;;;4915246;29;20465;-76
2021/05/24 10:11:43;;;;;;;3.67;1.50;;;20.20;77.80;;;;;;4930952;29;20524;-77
2021/05/24 10:14:10;;;;;;;2.80;1.50;;;20.30;77.60;;;;;;4914975;29;20428;-77
2021/05/24 10:16:44;;;;;;;1.73;1.50;;;20.40;78.00;;;;;;4915470;29;20409;-78
2021/05/24 10:19:12;;;;;;;4.70;1.83;;;20.40;77.00;;;;;;4914926;29;20801;-77
2021/05/24 10:21:38;;;;;;;2.03;1.60;;;20.40;77.00;;;;;;4915258;29;20470;-77
2021/05/24 10:24:05;;;;;;;1.63;1.60;;;20.50;76.30;;;;;;4915007;29;20951;-77
2021/05/24 10:26:31;;;;;;;3.43;1.63;;;20.60;76.90;;;;;;4913609;29;20557;-77
2021/05/24 10:28:57;;;;;;;25.63;1.90;;;20.70;76.60;;;;;;4914476;29;20534;-77
2021/05/24 10:31:28;;;;;;;1.93;1.23;;;20.80;76.70;;;;;;4915310;29;20472;-77
2021/05/24 10:33:54;;;;;;;7.30;1.90;;;20.90;76.50;;;;;;4915317;29;20425;-77
2021/05/24 10:36:29;;;;;;;4.70;1.50;;;20.90;74.90;;;;;;4914315;29;20478;-77
2021/05/24 10:39:19;;;;;;;2.30;1.70;;;20.90;76.10;;;;;;4914721;29;20986;-77
2021/05/24 10:41:57;;;;;;;2.90;1.50;;;20.90;74.10;;;;;;4914644;29;20444;-76
2021/05/24 10:44:25;;;;;;;3.67;1.30;;;20.90;72.70;;;;;;4914606;29;20424;-76
2021/05/24 10:46:52;;;;;;;1.97;1.20;;;21.00;75.00;;;;;;4914189;29;20591;-77
2021/05/24 10:49:22;;;;;;;2.73;1.57;;;21.10;76.40;;;;;;4914706;29;20456;-78
2021/05/24 10:51:50;;;;;;;3.10;1.37;;;21.30;76.60;;;;;;4915848;29;20437;-77
2021/05/24 10:54:22;;;;;;;2.40;1.23;;;21.20;75.80;;;;;;4913957;29;20488;-77
2021/05/24 10:57:08;;;;;;;2.40;1.60;;;21.30;75.80;;;;;;4914116;29;20428;-77
2021/05/24 10:59:43;;;;;;;1.90;1.87;;;21.40;76.90;;;;;;4915000;29;20552;-77
2021/05/24 11:02:23;;;;;;;2.00;1.50;;;21.50;75.40;;;;;;4913949;29;20447;-77
2021/05/24 11:04:51;;;;;;;1.60;1.30;;;21.60;75.10;;;;;;4913814;29;20491;-77
2021/05/24 11:07:42;;;;;;;3.23;1.40;;;21.60;74.20;;;;;;4914338;29;20437;-76
2021/05/24 11:10:17;;;;;;;1.53;1.40;;;21.70;74.80;;;;;;4914000;29;20457;-78
2021/05/24 11:12:53;;;;;;;1.73;1.13;;;21.90;76.30;;;;;;4913624;29;20991;-76
2021/05/24 11:15:31;;;;;;;2.20;1.17;;;22.00;75.70;;;;;;4914146;29;20421;-77
2021/05/24 11:18:00;;;;;;;3.23;1.70;;;22.10;73.30;;;;;;4914940;29;20886;-78
2021/05/24 11:20:53;;;;;;;1.50;1.23;;;22.10;73.50;;;;;;4913912;29;20923;-77
2021/05/24 11:28:59;;;;;;;4.20;1.40;;;22.20;74.00;;;;;;4915006;29;20483;-76
2021/05/24 11:31:42;;;;;;;1.40;1.30;;;22.30;72.70;;;;;;4913581;29;20864;-76
2021/05/24 11:34:38;;;;;;;5.33;1.47;;;22.40;75.90;;;;;;4913463;29;20416;-76
2021/05/24 11:37:08;;;;;;;1.73;1.50;;;22.60;74.40;;;;;;4913607;29;20947;-76
2021/05/24 11:39:51;;;;;;;3.30;1.60;;;22.70;74.10;;;;;;4913831;29;20424;-76
2021/05/24 11:42:29;;;;;;;2.80;1.37;;;22.80;73.80;;;;;;4913491;29;20464;-75
2021/05/24 11:44:58;;;;;;;1.80;1.30;;;22.90;72.10;;;;;;4913691;29;20434;-76
2021/05/24 11:47:25;;;;;;;1.73;1.40;;;22.90;73.50;;;;;;4913245;29;20412;-76
2021/05/24 11:49:53;;;;;;;1.40;1.13;;;23.10;74.90;;;;;;4912980;29;20461;-77
2021/05/24 11:52:21;;;;;;;2.30;1.40;;;23.20;72.10;;;;;;4913234;29;20444;-76
2021/05/24 11:54:50;;;;;;;1.70;1.30;;;23.10;70.50;;;;;;4913600;29;20421;-78
2021/05/24 11:57:21;;;;;;;2.20;1.20;;;23.00;68.10;;;;;;4913139;29;20507;-75
2021/05/24 11:59:47;;;;;;;1.77;1.43;;;23.00;68.60;;;;;;4914803;29;20877;-76
2021/05/24 12:02:14;;;;;;;2.83;1.30;;;23.00;69.60;;;;;;4905112;29;20515;-78
2021/05/24 12:04:47;;;;;;;4.60;1.30;;;23.00;71.30;;;;;;4912233;29;20527;-78
2021/05/24 12:07:21;;;;;;;1.63;1.50;;;23.20;71.80;;;;;;4911350;29;21004;-77
2021/05/24 12:09:54;;;;;;;1.60;1.37;;;23.30;72.60;;;;;;4914616;29;20471;-76
2021/05/24 12:12:29;;;;;;;1.90;1.40;;;23.40;71.00;;;;;;4912794;29;20451;-75
2021/05/24 12:14:57;;;;;;;2.10;1.30;;;23.50;71.50;;;;;;4913095;29;20857;-77
2021/05/24 12:17:25;;;;;;;2.10;1.30;;;23.60;71.70;;;;;;4913174;29;20480;-76
2021/05/24 12:19:53;;;;;;;1.50;1.30;;;23.70;69.10;;;;;;4912961;29;20606;-76
2021/05/24 12:22:21;;;;;;;2.27;1.20;;;23.80;70.60;;;;;;4912789;29;20492;-77
2021/05/24 12:24:48;;;;;;;1.30;1.20;;;23.90;69.80;;;;;;4914117;29;20425;-76
2021/05/24 12:27:17;;;;;;;1.97;1.07;;;24.00;68.70;;;;;;4916815;29;21007;-78
2021/05/24 12:30:17;;;;;;;2.63;1.10;;;24.00;67.60;;;;;;4916598;29;20463;-76
2021/05/24 12:32:55;;;;;;;3.37;1.40;;;24.20;71.00;;;;;;4917015;29;20420;-77
2021/05/24 12:35:26;;;;;;;1.30;1.30;;;24.30;71.00;;;;;;4916889;29;20971;-77
2021/05/24 12:38:15;;;;;;;1.70;1.20;;;24.50;71.80;;;;;;4911135;29;20506;-77
2021/05/24 12:40:41;;;;;;;2.07;1.17;;;24.50;69.30;;;;;;4916870;29;20972;-78
2021/05/24 12:43:07;;;;;;;2.13;1.20;;;24.50;69.50;;;;;;4916407;29;20427;-78
2021/05/24 12:45:33;;;;;;;3.07;1.10;;;24.60;71.00;;;;;;4916093;29;20271;-77
2021/05/24 12:48:19;;;;;;;1.30;1.20;;;24.60;67.50;;;;;;4916507;29;20200;-77
2021/05/24 12:50:47;;;;;;;1.40;1.30;;;24.70;69.50;;;;;;4917083;29;20447;-77
2021/05/24 12:53:15;;;;;;;1.60;1.30;;;24.80;72.30;;;;;;4912801;29;20423;-77
2021/05/24 12:55:41;;;;;;;1.40;1.30;;;24.80;68.30;;;;;;4915320;29;20488;-77
2021/05/24 12:58:12;;;;;;;1.93;1.20;;;24.90;67.90;;;;;;4916423;29;20453;-77
2021/05/24 13:00:49;;;;;;;2.53;1.20;;;25.00;70.20;;;;;;4909362;29;20636;-78
2021/05/24 13:03:18;;;;;;;1.20;1.20;;;25.20;67.90;;;;;;4912460;29;20431;-77
2021/05/24 13:06:12;;;;;;;1.20;1.20;;;25.40;67.60;;;;;;4915453;29;20515;-78
2021/05/24 13:08:51;;;;;;;2.70;1.40;;;25.40;65.20;;;;;;4910681;29;20460;-77
2021/05/24 13:11:19;;;;;;;1.83;1.20;;;25.10;65.30;;;;;;4914985;29;20504;-77
2021/05/24 13:13:57;;;;;;;1.40;0.90;;;24.90;66.00;;;;;;4916427;29;20424;-76
2021/05/24 13:24:58;;;;;;;2.17;1.10;;;24.50;65.60;;;;;;4917537;29;20404;-76
2021/05/24 13:30:15;;;;;;;1.63;1.13;;;24.20;67.40;;;;;;4915107;29;20463;-77
2021/05/24 13:32:41;;;;;;;2.27;1.20;;;24.00;68.20;;;;;;4916252;29;20843;-77
2021/05/24 13:35:30;;;;;;;4.03;1.20;;;23.90;68.40;;;;;;4915634;29;20456;-77
2021/05/24 13:37:58;;;;;;;1.67;1.20;;;23.80;66.10;;;;;;4907779;29;20695;-77
2021/05/24 13:40:50;;;;;;;1.60;1.27;;;23.80;67.50;;;;;;4912531;29;20432;-78
2021/05/24 13:43:16;;;;;;;1.30;1.20;;;23.50;67.00;;;;;;4913166;29;20923;-77
2021/05/24 13:45:41;;;;;;;1.60;1.20;;;23.40;68.00;;;;;;4915868;29;20428;-78
2021/05/24 13:48:07;;;;;;;1.30;1.10;;;23.30;68.70;;;;;;4915711;29;20193;-77
2021/05/24 13:50:32;;;;;;;1.30;1.20;;;23.10;67.90;;;;;;4915946;29;20232;-78
2021/05/24 13:52:58;;;;;;;3.10;1.40;;;22.90;68.40;;;;;;4915521;29;20188;-77
2021/05/24 13:55:24;;;;;;;1.70;1.10;;;22.80;68.20;;;;;;4915669;29;20189;-78
2021/05/24 13:57:50;;;;;;;1.40;1.20;;;22.60;66.40;;;;;;4915970;29;20262;-78
2021/05/24 14:00:16;;;;;;;1.30;1.00;;;22.50;68.30;;;;;;4916372;29;20181;-77
2021/05/24 14:02:42;;;;;;;1.20;1.10;;;22.50;67.30;;;;;;4915673;29;20192;-77
2021/05/24 14:05:09;;;;;;;2.60;1.70;;;22.60;68.90;;;;;;4915835;29;20428;-77
2021/05/24 14:07:36;;;;;;;1.43;1.27;;;23.00;70.00;;;;;;4915876;29;20558;-78
2021/05/24 14:10:03;;;;;;;1.20;1.20;;;23.50;70.40;;;;;;4915074;29;20464;-78
2021/05/24 14:12:29;;;;;;;1.50;1.20;;;24.10;70.40;;;;;;4906667;29;20668;-77
2021/05/24 14:15:02;;;;;;;2.50;1.40;;;24.50;67.30;;;;;;4915051;29;20441;-76
2021/05/24 14:17:27;;;;;;;2.97;1.50;;;25.00;67.60;;;;;;4904891;29;20829;-76
2021/05/24 14:19:53;;;;;;;1.50;1.30;;;25.30;65.60;;;;;;4913796;29;20500;-76
2021/05/24 14:22:19;;;;;;;4.60;1.70;;;25.50;66.20;;;;;;4913383;29;20304;-76
2021/05/24 14:24:44;;;;;;;2.30;1.50;;;25.60;64.80;;;;;;4913872;29;20177;-75
2021/05/24 14:27:10;;;;;;;2.23;1.33;;;25.60;64.50;;;;;;4914664;29;20421;-74
2021/05/24 14:29:35;;;;;;;4.00;1.40;;;25.90;66.10;;;;;;4914685;29;20216;-76
2021/05/24 14:32:14;;;;;;;3.30;1.50;;;26.10;64.90;;;;;;4914560;29;20232;-75
2021/05/24 14:34:51;;;;;;;2.57;1.30;;;26.20;67.00;;;;;;4912822;29;20188;-76
2021/05/24 14:37:18;;;;;;;1.77;1.30;;;26.40;63.90;;;;;;4913246;29;20437;-75
2021/05/24 14:39:44;;;;;;;2.43;1.70;;;26.40;64.70;;;;;;4914849;29;20520;-74
2021/05/24 14:42:09;;;;;;;2.60;1.40;;;26.30;64.90;;;;;;4916086;29;20508;-73
2021/05/24 14:44:35;;;;;;;1.77;1.50;;;26.30;65.10;;;;;;4914676;29;20193;-75
2021/05/24 14:47:01;;;;;;;2.60;1.40;;;26.30;64.00;;;;;;4915047;29;20480;-74
2021/05/24 14:49:26;;;;;;;2.27;1.90;;;26.30;65.40;;;;;;4915983;29;20695;-74
2021/05/24 14:51:54;;;;;;;3.93;1.53;;;26.30;64.20;;;;;;4914736;29;20201;-76
2021/05/24 14:54:20;;;;;;;2.10;1.57;;;26.30;64.80;;;;;;4914809;29;20280;-76
2021/05/24 14:56:46;;;;;;;4.73;1.67;;;26.50;65.70;;;;;;4915880;29;20421;-77